Centreville, Canada
Current Conditions -  °F | °C
As of 10:53 PM on Friday 21 Nov 2014 (Local Time) from KHUL Reporting Station
Clear Clear  
Wind Chill:   Ceiling: Unl
Heat Index: 17°   Visibility: 10mi
Dew Point:   Wind: 14mph
Humidity: 62%   Direction: 270°W
Pressure: 30.13"   Gusts: 22mph
Location:  46.43°N, 67.72°W
Report Text: KHUL 220253Z AUTO 27012G19KT 10SM CLR M08/M14 A3013 RMK AO2 SLP213 T10831144 51021
Loading
Personal Weather Stations






























Interactive Weather Map New forecast layout! Learn more

10-Day Weather Forecast

Advertisements
Track Severe Weather on mobile